createdAt,value
2017-06-10T00:00:31.064Z,16.50
2017-06-10T00:02:59.361Z,16.30
2017-06-10T00:05:27.651Z,16.30
2017-06-10T00:07:55.911Z,16.20
2017-06-10T00:10:24.171Z,16.20
2017-06-10T00:12:52.420Z,16.10
2017-06-10T00:15:21.442Z,16.10
2017-06-10T00:17:49.714Z,16.10
2017-06-10T00:20:17.997Z,16.10
2017-06-10T00:22:46.229Z,16.10
2017-06-10T00:25:14.878Z,16.00
2017-06-10T00:27:43.117Z,16.00
2017-06-10T00:30:11.434Z,16.00
2017-06-10T00:32:39.680Z,16.10
2017-06-10T00:35:07.936Z,16.00
2017-06-10T00:37:36.960Z,16.10
2017-06-10T00:40:05.285Z,16.10
2017-06-10T00:42:33.571Z,16.00
2017-06-10T00:45:02.573Z,15.90
2017-06-10T00:47:31.597Z,15.80
2017-06-10T00:49:59.848Z,15.80
2017-06-10T00:52:28.222Z,15.70
2017-06-10T00:54:57.376Z,15.70
2017-06-10T00:57:25.597Z,15.70
2017-06-10T00:59:53.861Z,15.70
2017-06-10T01:02:22.123Z,15.70
2017-06-10T01:04:51.267Z,15.60
2017-06-10T01:07:19.516Z,15.60
2017-06-10T01:09:47.747Z,15.40
2017-06-10T01:12:16.095Z,15.40
2017-06-10T01:14:44.387Z,15.30
2017-06-10T01:17:12.645Z,15.20
2017-06-10T01:19:41.001Z,15.10
2017-06-10T01:22:09.315Z,15.20
2017-06-10T01:24:37.614Z,15.20
2017-06-10T01:27:05.849Z,15.20
2017-06-10T01:29:34.100Z,15.20
2017-06-10T01:32:02.419Z,15.20
2017-06-10T01:34:30.785Z,15.20
2017-06-10T01:36:59.113Z,15.10
2017-06-10T01:39:28.149Z,15.20
2017-06-10T01:41:56.437Z,15.20
2017-06-10T01:44:24.682Z,15.20
2017-06-10T01:46:53.078Z,15.20
2017-06-10T01:49:21.325Z,15.20
2017-06-10T01:51:49.577Z,15.20
2017-06-10T01:54:18.659Z,15.20
2017-06-10T01:56:46.927Z,15.20
2017-06-10T01:59:15.270Z,15.20
2017-06-10T02:01:43.509Z,15.20
2017-06-10T02:04:12.525Z,15.20
2017-06-10T02:06:40.769Z,15.20
2017-06-10T02:09:09.779Z,15.30
2017-06-10T02:11:38.812Z,15.20
2017-06-10T02:14:07.042Z,15.20
2017-06-10T02:16:36.081Z,15.20
2017-06-10T02:19:04.459Z,15.10
2017-06-10T02:21:32.750Z,15.20
2017-06-10T02:24:00.989Z,15.10
2017-06-10T02:26:29.262Z,15.10
2017-06-10T02:28:57.519Z,15.20
2017-06-10T02:31:26.524Z,15.10
2017-06-10T02:33:54.809Z,15.10
2017-06-10T02:36:23.112Z,15.00
2017-06-10T02:38:51.446Z,15.10
2017-06-10T02:41:19.702Z,15.00
2017-06-10T02:43:48.713Z,15.10
2017-06-10T02:46:16.956Z,15.10
2017-06-10T02:48:45.238Z,15.10
2017-06-10T02:51:13.474Z,15.10
2017-06-10T02:53:41.733Z,15.10
2017-06-10T02:56:09.990Z,15.10
2017-06-10T02:58:38.229Z,15.10
2017-06-10T03:01:06.477Z,15.10
2017-06-10T03:03:34.734Z,15.10
2017-06-10T03:06:02.998Z,15.00
2017-06-10T03:08:31.308Z,14.90
2017-06-10T03:10:59.673Z,14.90
2017-06-10T03:13:27.915Z,14.90
2017-06-10T03:15:56.244Z,14.90
2017-06-10T03:18:24.497Z,14.90
2017-06-10T03:20:52.840Z,14.80
2017-06-10T03:23:21.921Z,14.60
2017-06-10T03:25:51.177Z,14.60
2017-06-10T03:28:19.416Z,14.50
2017-06-10T03:30:47.660Z,14.50
2017-06-10T03:33:16.002Z,14.50
2017-06-10T03:35:44.280Z,14.50
2017-06-10T03:38:12.523Z,14.40
2017-06-10T03:40:40.826Z,14.40
2017-06-10T03:43:09.154Z,14.30
2017-06-10T03:45:38.226Z,14.20
2017-06-10T03:48:06.573Z,14.20
2017-06-10T03:50:35.424Z,14.10
2017-06-10T03:53:04.472Z,14.00
2017-06-10T03:55:32.865Z,14.00
2017-06-10T03:58:01.222Z,14.00
2017-06-10T04:00:29.561Z,14.10
2017-06-10T04:02:57.831Z,14.00
2017-06-10T04:05:27.007Z,14.00
2017-06-10T04:07:55.229Z,14.00
2017-06-10T04:10:23.489Z,14.00
2017-06-10T04:12:51.747Z,13.90
2017-06-10T04:15:20.781Z,14.00
2017-06-10T04:17:49.055Z,13.90
2017-06-10T04:20:17.361Z,13.90
2017-06-10T04:22:45.611Z,14.00
2017-06-10T04:25:13.923Z,14.00
2017-06-10T04:27:42.272Z,13.90
2017-06-10T04:30:10.520Z,13.90
2017-06-10T04:32:38.861Z,14.00
2017-06-10T04:35:07.107Z,14.10
2017-06-10T04:37:35.423Z,14.10
2017-06-10T04:40:03.691Z,14.10
2017-06-10T04:42:32.698Z,14.20
2017-06-10T04:45:00.957Z,14.20
2017-06-10T04:47:29.997Z,14.20
2017-06-10T04:49:58.271Z,14.20
2017-06-10T04:52:26.524Z,14.30
2017-06-10T04:54:54.800Z,14.30
2017-06-10T04:57:23.121Z,14.40
2017-06-10T04:59:51.369Z,14.40
2017-06-10T05:02:19.646Z,14.50
2017-06-10T05:04:48.518Z,14.50
2017-06-10T05:07:16.846Z,14.60
2017-06-10T05:09:45.189Z,14.60
2017-06-10T05:12:13.444Z,14.70
2017-06-10T05:14:41.735Z,14.80
2017-06-10T05:17:10.155Z,14.80
2017-06-10T05:19:38.629Z,14.80
2017-06-10T05:22:06.882Z,14.90
2017-06-10T05:24:35.186Z,15.00
2017-06-10T05:27:03.553Z,15.00
2017-06-10T05:29:31.831Z,15.00
2017-06-10T05:32:00.213Z,15.10
2017-06-10T05:34:28.466Z,15.10
2017-06-10T05:36:56.742Z,15.10
2017-06-10T05:39:25.047Z,15.20
2017-06-10T05:41:53.350Z,15.20
2017-06-10T05:44:21.615Z,15.20
2017-06-10T05:46:49.960Z,15.30
2017-06-10T05:49:18.325Z,15.20
2017-06-10T05:51:46.646Z,15.30
2017-06-10T05:54:14.978Z,15.40
2017-06-10T05:56:43.229Z,15.70
2017-06-10T05:59:11.489Z,16.10
2017-06-10T06:01:39.764Z,16.50
2017-06-10T06:04:09.597Z,17.60
2017-06-10T06:06:37.944Z,17.60
2017-06-10T06:09:06.173Z,18.20
2017-06-10T06:11:34.430Z,18.80
2017-06-10T06:14:02.694Z,19.60
2017-06-10T06:16:30.954Z,20.40
2017-06-10T06:19:00.030Z,21.80
2017-06-10T06:21:28.277Z,21.80
2017-06-10T06:23:56.537Z,22.50
2017-06-10T06:26:24.801Z,23.20
2017-06-10T06:28:53.100Z,23.90
2017-06-10T06:31:21.365Z,24.50
2017-06-10T06:33:49.642Z,25.20
2017-06-10T06:36:17.937Z,25.70
2017-06-10T06:38:46.219Z,26.30
2017-06-10T06:41:14.509Z,26.40
2017-06-10T06:43:42.816Z,26.60
2017-06-10T06:46:11.081Z,26.50
2017-06-10T06:48:40.104Z,25.60
2017-06-10T06:51:08.361Z,25.60
2017-06-10T06:53:36.627Z,24.80
2017-06-10T06:56:05.668Z,23.70
2017-06-10T06:58:33.925Z,23.60
2017-06-10T07:01:02.169Z,23.00
2017-06-10T07:03:31.270Z,22.60
2017-06-10T07:06:00.279Z,22.40
2017-06-10T07:08:28.554Z,22.40
2017-06-10T07:10:56.802Z,22.20
2017-06-10T07:13:25.821Z,22.10
2017-06-10T07:15:54.140Z,22.10
2017-06-10T07:18:22.391Z,22.00
2017-06-10T07:20:50.683Z,22.00
2017-06-10T07:23:19.022Z,22.10
2017-06-10T07:25:47.342Z,22.20
2017-06-10T07:28:15.710Z,22.60
2017-06-10T07:30:44.020Z,23.20
2017-06-10T07:33:12.245Z,23.70
2017-06-10T07:35:40.514Z,24.00
2017-06-10T07:38:09.173Z,24.40
2017-06-10T07:40:37.545Z,24.70
2017-06-10T07:43:05.789Z,25.00
2017-06-10T07:45:34.057Z,25.10
2017-06-10T07:48:02.904Z,25.40
2017-06-10T07:50:31.176Z,25.80
2017-06-10T07:53:01.022Z,25.70
2017-06-10T07:55:29.342Z,25.50
2017-06-10T07:57:57.607Z,25.50
2017-06-10T08:00:25.847Z,25.30
2017-06-10T08:02:54.098Z,25.30
2017-06-10T08:05:22.330Z,25.30
2017-06-10T08:07:50.597Z,25.10
2017-06-10T08:10:18.854Z,25.10
2017-06-10T08:12:48.322Z,25.20
2017-06-10T08:15:17.561Z,25.30
2017-06-10T08:17:45.782Z,25.30
2017-06-10T08:20:14.915Z,25.30
2017-06-10T08:22:43.160Z,25.30
2017-06-10T08:25:11.415Z,25.30
2017-06-10T08:27:39.666Z,25.20
2017-06-10T08:30:08.001Z,25.30
2017-06-10T08:32:36.313Z,25.30
2017-06-10T08:35:04.573Z,25.50
2017-06-10T08:37:32.814Z,25.50
2017-06-10T08:40:01.070Z,25.60
2017-06-10T08:42:30.078Z,25.90
2017-06-10T08:44:59.103Z,25.80
2017-06-10T08:47:27.370Z,25.80
2017-06-10T08:49:55.609Z,25.70
2017-06-10T08:52:23.958Z,25.70
2017-06-10T08:54:52.194Z,25.70
2017-06-10T08:57:20.441Z,25.90
2017-06-10T08:59:49.437Z,26.30
2017-06-10T09:02:18.477Z,26.20
2017-06-10T09:04:46.725Z,26.10
2017-06-10T09:07:15.037Z,26.10
2017-06-10T09:09:43.414Z,26.00
2017-06-10T09:12:11.659Z,26.30
2017-06-10T09:14:39.965Z,26.50
2017-06-10T09:17:08.274Z,26.60
2017-06-10T09:19:36.614Z,26.50
2017-06-10T09:22:04.851Z,26.40
2017-06-10T09:24:33.185Z,26.60
2017-06-10T09:27:01.418Z,26.60
2017-06-10T09:29:29.677Z,26.80
2017-06-10T09:31:57.989Z,26.80
2017-06-10T09:34:26.221Z,27.30
2017-06-10T09:36:55.353Z,27.70
2017-06-10T09:39:23.625Z,27.70
2017-06-10T09:41:51.870Z,28.20
2017-06-10T09:44:20.127Z,28.60
2017-06-10T09:46:48.577Z,28.80
2017-06-10T09:49:16.844Z,28.90
2017-06-10T09:51:45.221Z,28.90
2017-06-10T09:54:13.485Z,29.10
2017-06-10T09:56:41.762Z,29.00
2017-06-10T09:59:10.011Z,29.40
2017-06-10T10:01:38.262Z,29.80
2017-06-10T10:04:06.526Z,30.40
2017-06-10T10:06:34.756Z,30.90
2017-06-10T10:09:03.002Z,30.90
2017-06-10T10:11:32.009Z,31.20
2017-06-10T10:14:00.329Z,31.20
2017-06-10T10:16:28.681Z,31.50
2017-06-10T10:18:57.064Z,32.00
2017-06-10T10:21:25.297Z,32.40
2017-06-10T10:23:53.589Z,32.20
2017-06-10T10:26:21.896Z,32.60
2017-06-10T10:28:50.211Z,33.30
2017-06-10T10:31:18.504Z,33.80
2017-06-10T10:33:46.783Z,33.50
2017-06-10T10:36:15.826Z,35.10
2017-06-10T10:38:44.159Z,35.10
2017-06-10T10:41:12.465Z,34.70
2017-06-10T10:43:40.795Z,35.70
2017-06-10T10:46:09.878Z,34.20
2017-06-10T10:48:38.125Z,34.20
2017-06-10T10:51:06.507Z,33.40
2017-06-10T10:53:34.846Z,32.90
2017-06-10T10:56:03.101Z,32.60
2017-06-10T10:58:32.117Z,33.80
2017-06-10T11:01:00.433Z,33.70
2017-06-10T11:03:28.790Z,34.40
2017-06-10T11:05:57.057Z,34.70
2017-06-10T11:08:25.325Z,35.60
2017-06-10T11:10:53.577Z,36.40
2017-06-10T11:13:21.828Z,35.90
2017-06-10T11:15:50.058Z,36.00
2017-06-10T11:18:18.313Z,36.20
2017-06-10T11:20:46.625Z,36.60
2017-06-10T11:23:14.937Z,35.90
2017-06-10T11:25:43.202Z,34.30
2017-06-10T11:28:11.438Z,32.90
2017-06-10T11:30:39.764Z,31.10
2017-06-10T11:33:08.004Z,31.30
2017-06-10T11:35:36.271Z,32.70
2017-06-10T11:38:04.485Z,34.40
2017-06-10T11:40:32.749Z,35.70
2017-06-10T11:43:01.146Z,36.90
2017-06-10T11:45:29.393Z,37.50
2017-06-10T11:47:57.648Z,36.70
2017-06-10T11:50:25.876Z,36.00
2017-06-10T11:52:54.921Z,34.90
2017-06-10T11:55:23.250Z,34.80
2017-06-10T11:57:52.284Z,33.60
2017-06-10T12:00:20.530Z,33.60
2017-06-10T12:02:49.594Z,32.00
2017-06-10T12:05:17.821Z,31.90
2017-06-10T12:07:46.110Z,31.00
2017-06-10T12:10:14.437Z,30.00
2017-06-10T12:12:42.763Z,29.80
2017-06-10T12:15:10.997Z,29.30
2017-06-10T12:17:39.242Z,28.60
2017-06-10T12:20:07.532Z,28.40
2017-06-10T12:22:35.766Z,28.40
2017-06-10T12:25:04.023Z,28.00
2017-06-10T12:27:32.269Z,27.80
2017-06-10T12:30:01.291Z,27.10
2017-06-10T12:32:29.886Z,27.00
2017-06-10T12:34:58.206Z,27.10
2017-06-10T12:37:26.417Z,26.90
2017-06-10T12:39:54.748Z,26.80
2017-06-10T12:42:23.103Z,26.70
2017-06-10T12:44:51.345Z,26.60
2017-06-10T12:47:19.676Z,26.50
2017-06-10T12:49:47.918Z,26.40
2017-06-10T12:52:16.196Z,26.40
2017-06-10T12:54:44.447Z,26.50
2017-06-10T12:57:12.741Z,26.50
2017-06-10T12:59:41.022Z,26.60
2017-06-10T13:02:09.272Z,27.00
2017-06-10T13:04:37.600Z,27.10
2017-06-10T13:07:05.943Z,27.10
2017-06-10T13:09:34.207Z,27.00
2017-06-10T13:12:02.461Z,26.80
2017-06-10T13:14:31.493Z,26.40
2017-06-10T13:16:59.762Z,26.40
2017-06-10T13:19:28.024Z,26.30
2017-06-10T13:21:56.262Z,26.30
2017-06-10T13:24:25.292Z,25.90
2017-06-10T13:26:53.650Z,25.80
2017-06-10T13:29:21.884Z,25.70
2017-06-10T13:31:50.241Z,25.50
2017-06-10T13:34:18.508Z,25.40
2017-06-10T13:36:46.739Z,25.30
2017-06-10T13:39:15.264Z,25.20
2017-06-10T13:41:43.521Z,25.20
2017-06-10T13:44:11.760Z,25.10
2017-06-10T13:46:40.058Z,25.00
2017-06-10T13:49:09.068Z,24.90
2017-06-10T13:51:37.313Z,24.90
2017-06-10T13:54:06.357Z,24.70
2017-06-10T13:56:34.746Z,24.70
2017-06-10T13:59:03.074Z,24.70
2017-06-10T14:01:32.110Z,24.70
2017-06-10T14:04:00.404Z,24.60
2017-06-10T14:06:28.701Z,24.60
2017-06-10T14:08:57.029Z,24.60
2017-06-10T14:11:25.321Z,24.60
2017-06-10T14:13:53.578Z,24.50
2017-06-10T14:16:21.817Z,24.50
2017-06-10T14:18:50.841Z,24.60
2017-06-10T14:21:19.087Z,24.50
2017-06-10T14:23:48.105Z,24.60
2017-06-10T14:26:16.334Z,24.60
2017-06-10T14:28:44.623Z,24.60
2017-06-10T14:31:13.702Z,24.60
2017-06-10T14:33:41.930Z,24.60
2017-06-10T14:36:10.363Z,24.70
2017-06-10T14:38:38.578Z,24.60
2017-06-10T14:41:06.831Z,24.60
2017-06-10T14:43:35.065Z,24.60
2017-06-10T14:46:03.324Z,24.60
2017-06-10T14:48:31.563Z,24.50
2017-06-10T14:50:59.887Z,24.50
2017-06-10T14:53:28.145Z,24.60
2017-06-10T14:55:56.397Z,24.50
2017-06-10T14:58:24.697Z,24.60
2017-06-10T15:00:52.926Z,24.60
2017-06-10T15:03:22.067Z,24.50
2017-06-10T15:05:50.298Z,24.60
2017-06-10T15:08:19.334Z,24.50
2017-06-10T15:10:47.632Z,24.50
2017-06-10T15:13:15.882Z,24.60
2017-06-10T15:15:44.129Z,24.60
2017-06-10T15:18:12.463Z,24.60
2017-06-10T15:20:40.709Z,24.60
2017-06-10T15:23:08.978Z,24.60
2017-06-10T15:25:37.221Z,24.50
2017-06-10T15:28:06.300Z,24.60
2017-06-10T15:30:35.609Z,24.60
2017-06-10T15:33:04.671Z,24.50
2017-06-10T15:35:32.925Z,24.50
2017-06-10T15:38:02.080Z,24.50
2017-06-10T15:40:30.303Z,24.50
2017-06-10T15:42:58.734Z,24.60
2017-06-10T15:45:26.962Z,24.60
2017-06-10T15:47:55.201Z,24.50
2017-06-10T15:50:23.501Z,24.50
2017-06-10T15:52:51.748Z,24.60
2017-06-10T15:55:19.991Z,24.50
2017-06-10T15:57:48.326Z,24.50
2017-06-10T16:00:16.702Z,24.50
2017-06-10T16:02:45.003Z,24.40
2017-06-10T16:05:13.228Z,24.40
2017-06-10T16:07:41.508Z,24.40
2017-06-10T16:10:09.886Z,24.30
2017-06-10T16:12:38.882Z,24.30
2017-06-10T16:15:07.121Z,24.30
2017-06-10T16:17:35.438Z,24.30
2017-06-10T16:20:03.794Z,24.40
2017-06-10T16:22:32.111Z,24.40
2017-06-10T16:25:00.485Z,24.40
2017-06-10T16:27:28.733Z,24.40
2017-06-10T16:29:56.997Z,24.40
2017-06-10T16:32:26.085Z,24.40
2017-06-10T16:34:55.101Z,24.40
2017-06-10T16:37:23.367Z,24.40
2017-06-10T16:39:52.366Z,24.40
2017-06-10T16:42:20.611Z,24.40
2017-06-10T16:44:48.943Z,24.40
2017-06-10T16:47:17.274Z,24.40
2017-06-10T16:49:46.359Z,24.40
2017-06-10T16:52:15.387Z,24.40
2017-06-10T16:54:43.638Z,24.40
2017-06-10T16:57:11.866Z,24.40
2017-06-10T16:59:40.101Z,24.40
2017-06-10T17:02:08.361Z,24.30
2017-06-10T17:04:37.374Z,24.30
2017-06-10T17:07:05.643Z,24.30
2017-06-10T17:09:33.962Z,24.30
2017-06-10T17:12:02.217Z,24.30
2017-06-10T17:14:30.474Z,24.30
2017-06-10T17:16:58.773Z,24.30
2017-06-10T17:19:27.076Z,24.20
2017-06-10T17:21:55.437Z,24.30
2017-06-10T17:24:23.689Z,24.40
2017-06-10T17:26:51.938Z,24.30
2017-06-10T17:29:20.974Z,24.30
2017-06-10T17:31:49.204Z,24.30
2017-06-10T17:34:18.225Z,24.10
2017-06-10T17:36:46.470Z,24.10
2017-06-10T17:39:15.514Z,24.10
2017-06-10T17:41:43.778Z,24.10
2017-06-10T17:44:12.163Z,24.10
2017-06-10T17:46:40.469Z,24.00
2017-06-10T17:49:08.709Z,24.00
2017-06-10T17:51:37.041Z,24.00
2017-06-10T17:54:05.262Z,24.00
2017-06-10T17:56:33.636Z,24.00
2017-06-10T17:59:01.894Z,24.00
2017-06-10T18:01:30.229Z,24.00
2017-06-10T18:03:58.476Z,24.00
2017-06-10T18:06:26.743Z,24.00
2017-06-10T18:08:55.018Z,23.90
2017-06-10T18:11:23.285Z,23.90
2017-06-10T18:13:51.617Z,23.80
2017-06-10T18:16:19.897Z,23.90
2017-06-10T18:18:48.941Z,23.90
2017-06-10T18:21:17.189Z,23.80
2017-06-10T18:23:48.593Z,23.90
2017-06-10T18:26:16.840Z,23.80
2017-06-10T18:28:45.134Z,23.80
2017-06-10T18:31:13.346Z,23.80
2017-06-10T18:33:42.385Z,23.80
2017-06-10T18:36:10.668Z,23.80
2017-06-10T18:38:38.905Z,23.70
2017-06-10T18:41:07.162Z,23.70
2017-06-10T18:43:36.279Z,23.60
2017-06-10T18:46:05.280Z,23.60
2017-06-10T18:48:33.525Z,23.60
2017-06-10T18:51:02.627Z,23.50
2017-06-10T18:53:31.640Z,23.50
2017-06-10T18:55:59.949Z,23.50
2017-06-10T18:58:28.190Z,23.50
2017-06-10T19:00:56.741Z,23.40
2017-06-10T19:03:25.033Z,23.40
2017-06-10T19:05:54.033Z,23.40
2017-06-10T19:08:22.337Z,23.40
2017-06-10T19:10:50.589Z,23.40
2017-06-10T19:13:19.721Z,23.30
2017-06-10T19:15:47.996Z,23.30
2017-06-10T19:18:16.363Z,23.30
2017-06-10T19:20:44.665Z,23.20
2017-06-10T19:23:12.942Z,23.20
2017-06-10T19:25:41.229Z,23.20
2017-06-10T19:28:09.518Z,23.20
2017-06-10T19:30:38.579Z,23.20
2017-06-10T19:33:06.822Z,23.20
2017-06-10T19:35:35.116Z,23.20
2017-06-10T19:38:03.381Z,23.30
2017-06-10T19:40:31.665Z,23.30
2017-06-10T19:42:59.939Z,23.20
2017-06-10T19:45:28.287Z,23.20
2017-06-10T19:47:57.293Z,23.20
2017-06-10T19:50:25.635Z,23.20
2017-06-10T19:52:53.955Z,23.30
2017-06-10T19:55:22.193Z,23.30
2017-06-10T19:57:51.223Z,23.30
2017-06-10T20:00:19.517Z,23.30
2017-06-10T20:02:47.786Z,23.30
2017-06-10T20:05:16.030Z,23.30
2017-06-10T20:07:44.333Z,23.20
2017-06-10T20:10:12.558Z,23.20
2017-06-10T20:12:41.577Z,22.90
2017-06-10T20:15:09.832Z,22.90
2017-06-10T20:17:38.131Z,23.00
2017-06-10T20:20:06.361Z,22.80
2017-06-10T20:22:34.637Z,22.80
2017-06-10T20:25:03.761Z,22.70
2017-06-10T20:27:32.769Z,22.50
2017-06-10T20:30:01.030Z,22.40
2017-06-10T20:32:29.265Z,22.40
2017-06-10T20:34:57.530Z,22.40
2017-06-10T20:37:25.770Z,22.30
2017-06-10T20:39:54.021Z,22.30
2017-06-10T20:42:23.031Z,22.20
2017-06-10T20:44:51.290Z,22.20
2017-06-10T20:47:20.395Z,22.20
2017-06-10T20:49:48.755Z,22.10
2017-06-10T20:52:17.080Z,22.10
2017-06-10T20:54:45.329Z,22.00
2017-06-10T20:57:13.582Z,22.00
2017-06-10T20:59:42.589Z,21.90
2017-06-10T21:02:10.853Z,22.00
2017-06-10T21:04:39.871Z,21.80
2017-06-10T21:07:08.119Z,21.80
2017-06-10T21:09:37.136Z,21.70
2017-06-10T21:12:05.448Z,21.70
2017-06-10T21:14:33.761Z,21.60
2017-06-10T21:17:01.993Z,21.60
2017-06-10T21:19:30.372Z,21.50
2017-06-10T21:21:58.612Z,21.50
2017-06-10T21:24:26.879Z,21.40
2017-06-10T21:26:55.898Z,21.20
2017-06-10T21:29:24.239Z,21.20
2017-06-10T21:31:52.461Z,21.20
2017-06-10T21:34:20.844Z,21.00
2017-06-10T21:36:49.109Z,20.90
2017-06-10T21:39:17.489Z,20.80
2017-06-10T21:41:45.753Z,20.70
2017-06-10T21:44:14.002Z,20.70
2017-06-10T21:46:43.112Z,20.70
2017-06-10T21:49:11.352Z,20.70
2017-06-10T21:51:39.605Z,20.70
2017-06-10T21:54:07.857Z,20.60
2017-06-10T21:56:36.114Z,20.60
2017-06-10T21:59:04.366Z,20.60
2017-06-10T22:01:33.392Z,20.50
2017-06-10T22:04:01.737Z,20.50
2017-06-10T22:06:30.681Z,20.50
2017-06-10T22:08:58.984Z,20.50
2017-06-10T22:11:27.217Z,20.50
2017-06-10T22:13:55.526Z,20.50
2017-06-10T22:16:23.737Z,20.40
2017-06-10T22:18:52.776Z,20.40
2017-06-10T22:21:21.026Z,20.30
2017-06-10T22:23:49.327Z,20.30
2017-06-10T22:26:17.557Z,20.30
2017-06-10T22:28:46.597Z,20.30
2017-06-10T22:31:14.849Z,20.20
2017-06-10T22:33:43.086Z,20.10
2017-06-10T22:36:12.138Z,20.10
2017-06-10T22:38:40.458Z,20.10
2017-06-10T22:41:09.477Z,20.10
2017-06-10T22:43:37.808Z,20.10
2017-06-10T22:46:06.158Z,20.10
2017-06-10T22:48:34.405Z,20.00
2017-06-10T22:51:02.661Z,20.00
2017-06-10T22:53:30.921Z,20.00
2017-06-10T22:55:59.263Z,20.00
2017-06-10T22:58:28.133Z,19.90
2017-06-10T23:00:56.391Z,19.90
2017-06-10T23:03:25.415Z,19.80
2017-06-10T23:05:53.667Z,19.80
2017-06-10T23:08:21.946Z,19.80
2017-06-10T23:10:50.199Z,19.80
2017-06-10T23:13:19.211Z,19.80
2017-06-10T23:15:47.574Z,19.70
2017-06-10T23:18:16.601Z,19.60
2017-06-10T23:20:44.857Z,19.60
2017-06-10T23:23:13.140Z,19.60
2017-06-10T23:25:41.416Z,19.60
2017-06-10T23:28:09.706Z,19.60
2017-06-10T23:30:38.002Z,19.50
2017-06-10T23:33:06.245Z,19.50
2017-06-10T23:35:34.562Z,19.50
2017-06-10T23:38:02.914Z,19.50
2017-06-10T23:40:31.166Z,19.50
2017-06-10T23:42:59.514Z,19.50
2017-06-10T23:45:27.794Z,19.50
2017-06-10T23:47:56.124Z,19.50
2017-06-10T23:50:24.511Z,19.50
2017-06-10T23:52:52.752Z,19.50
2017-06-10T23:55:21.052Z,19.50
2017-06-10T23:57:49.314Z,19.50
